ěÝzenÝ letovÚho provozu ╚eskÚ republiky
Letiste: LKPD Aktualizace: 24.09.2023 02:29:39  UTC
 METAR LKPD 24.09. 02:30 ...
METAR LKPD 240230Z VRB02KT CAVOK 07/07 Q1023 RMK BLU=
 TAF LKPD 23.09. 23:00 ...
TAF LKPD 232300Z 2400/2500 VRB02KT CAVOK      TEMPO 2400/2407 4000 MIFG BR      BECMG 2407/2409 29006KT BKN030      BECMG 2415/2417 03008KT CAVOK      BECMG 2421/2423 VRB02KT=